sensor_id;sensor_type;location;lat;lon;timestamp;pressure;altitude;pressure_sealevel;temperature;humidity
8286;BME280;4181;43.416;24.598;2023-02-07T00:01:55;101904.50;;;1.25;100.00
8286;BME280;4181;43.416;24.598;2023-02-07T00:04:20;101906.81;;;1.20;100.00
8286;BME280;4181;43.416;24.598;2023-02-07T00:06:46;101896.63;;;1.14;100.00
8286;BME280;4181;43.416;24.598;2023-02-07T00:09:11;101912.50;;;1.07;100.00
8286;BME280;4181;43.416;24.598;2023-02-07T00:11:37;101926.81;;;0.98;100.00
8286;BME280;4181;43.416;24.598;2023-02-07T00:14:06;101932.06;;;0.90;100.00
8286;BME280;4181;43.416;24.598;2023-02-07T00:16:32;101932.19;;;0.98;100.00
8286;BME280;4181;43.416;24.598;2023-02-07T00:18:58;101934.31;;;0.85;100.00
8286;BME280;4181;43.416;24.598;2023-02-07T00:21:24;101930.97;;;0.83;100.00
8286;BME280;4181;43.416;24.598;2023-02-07T00:23:51;101935.22;;;0.76;100.00
8286;BME280;4181;43.416;24.598;2023-02-07T00:26:19;101943.44;;;0.56;100.00
8286;BME280;4181;43.416;24.598;2023-02-07T00:28:46;101940.19;;;0.62;100.00
8286;BME280;4181;43.416;24.598;2023-02-07T00:31:20;101937.06;;;0.66;100.00
8286;BME280;4181;43.416;24.598;2023-02-07T00:33:48;101938.34;;;0.53;100.00
8286;BME280;4181;43.416;24.598;2023-02-07T00:36:19;101930.72;;;0.48;100.00
8286;BME280;4181;43.416;24.598;2023-02-07T00:38:45;101929.31;;;0.35;100.00
8286;BME280;4181;43.416;24.598;2023-02-07T00:41:11;101932.41;;;0.30;100.00
8286;BME280;4181;43.416;24.598;2023-02-07T00:43:40;101941.44;;;0.10;100.00
8286;BME280;4181;43.416;24.598;2023-02-07T00:46:05;101942.00;;;0.14;100.00
8286;BME280;4181;43.416;24.598;2023-02-07T00:48:31;101935.66;;;0.05;100.00
8286;BME280;4181;43.416;24.598;2023-02-07T00:50:57;101956.56;;;0.21;100.00
8286;BME280;4181;43.416;24.598;2023-02-07T00:53:23;101951.63;;;0.16;100.00
8286;BME280;4181;43.416;24.598;2023-02-07T00:55:50;101937.09;;;0.09;100.00
8286;BME280;4181;43.416;24.598;2023-02-07T00:58:15;101942.59;;;0.08;100.00
8286;BME280;4181;43.416;24.598;2023-02-07T01:00:41;101952.31;;;0.09;100.00
8286;BME280;4181;43.416;24.598;2023-02-07T01:03:06;101937.78;;;0.21;100.00
8286;BME280;4181;43.416;24.598;2023-02-07T01:05:32;101921.84;;;0.38;100.00
8286;BME280;4181;43.416;24.598;2023-02-07T01:07:57;101931.28;;;0.42;100.00
8286;BME280;4181;43.416;24.598;2023-02-07T01:10:23;101930.72;;;0.48;100.00
8286;BME280;4181;43.416;24.598;2023-02-07T01:12:50;101934.53;;;0.46;100.00
8286;BME280;4181;43.416;24.598;2023-02-07T01:15:16;101926.19;;;0.58;100.00
8286;BME280;4181;43.416;24.598;2023-02-07T01:17:42;101923.66;;;-0.01;100.00
8286;BME280;4181;43.416;24.598;2023-02-07T01:20:08;101909.69;;;-0.04;100.00
8286;BME280;4181;43.416;24.598;2023-02-07T01:22:36;101910.66;;;-0.15;100.00
8286;BME280;4181;43.416;24.598;2023-02-07T01:25:02;101904.13;;;-0.22;100.00
8286;BME280;4181;43.416;24.598;2023-02-07T01:27:28;101919.69;;;-0.16;100.00
8286;BME280;4181;43.416;24.598;2023-02-07T01:29:53;101914.91;;;-0.03;100.00
8286;BME280;4181;43.416;24.598;2023-02-07T01:32:18;101915.88;;;0.16;100.00
8286;BME280;4181;43.416;24.598;2023-02-07T01:34:44;101910.38;;;0.17;100.00
8286;BME280;4181;43.416;24.598;2023-02-07T01:37:09;101915.75;;;0.36;100.00
8286;BME280;4181;43.416;24.598;2023-02-07T01:39:35;101918.56;;;0.44;100.00
8286;BME280;4181;43.416;24.598;2023-02-07T01:42:00;101909.25;;;0.29;100.00
8286;BME280;4181;43.416;24.598;2023-02-07T01:46:52;101906.16;;;0.43;100.00
8286;BME280;4181;43.416;24.598;2023-02-07T01:49:23;101908.66;;;0.54;100.00
8286;BME280;4181;43.416;24.598;2023-02-07T01:51:54;101917.84;;;0.61;100.00
8286;BME280;4181;43.416;24.598;2023-02-07T01:54:21;101908.94;;;0.61;100.00
8286;BME280;4181;43.416;24.598;2023-02-07T01:56:54;101892.72;;;0.34;100.00
8286;BME280;4181;43.416;24.598;2023-02-07T01:59:21;101889.19;;;0.33;100.00
8286;BME280;4181;43.416;24.598;2023-02-07T02:01:48;101922.25;;;0.43;100.00
8286;BME280;4181;43.416;24.598;2023-02-07T02:04:14;101927.50;;;0.07;100.00
8286;BME280;4181;43.416;24.598;2023-02-07T02:06:40;101915.19;;;0.14;100.00
8286;BME280;4181;43.416;24.598;2023-02-07T02:09:11;101917.88;;;0.23;100.00
8286;BME280;4181;43.416;24.598;2023-02-07T02:12:33;101934.13;;;0.31;100.00
8286;BME280;4181;43.416;24.598;2023-02-07T02:26:29;101929.84;;;0.57;100.00
8286;BME280;4181;43.416;24.598;2023-02-07T02:41:10;101924.63;;;0.75;100.00
8286;BME280;4181;43.416;24.598;2023-02-07T02:46:34;101913.44;;;0.79;100.00
8286;BME280;4181;43.416;24.598;2023-02-07T02:49:02;101929.84;;;0.76;100.00
8286;BME280;4181;43.416;24.598;2023-02-07T02:51:29;101937.38;;;0.63;100.00
8286;BME280;4181;43.416;24.598;2023-02-07T02:53:57;101942.03;;;0.61;100.00
8286;BME280;4181;43.416;24.598;2023-02-07T03:12:31;101929.31;;;0.63;100.00
8286;BME280;4181;43.416;24.598;2023-02-07T03:15:16;101922.50;;;0.59;100.00
8286;BME280;4181;43.416;24.598;2023-02-07T03:18:06;101936.91;;;0.77;100.00
8286;BME280;4181;43.416;24.598;2023-02-07T03:20:44;101930.25;;;0.81;100.00
8286;BME280;4181;43.416;24.598;2023-02-07T03:23:13;101939.72;;;0.76;100.00
8286;BME280;4181;43.416;24.598;2023-02-07T03:25:41;101928.41;;;0.72;100.00
8286;BME280;4181;43.416;24.598;2023-02-07T03:28:08;101924.50;;;0.57;100.00
8286;BME280;4181;43.416;24.598;2023-02-07T03:30:36;101914.47;;;0.59;100.00
8286;BME280;4181;43.416;24.598;2023-02-07T03:33:05;101923.94;;;0.63;100.00
8286;BME280;4181;43.416;24.598;2023-02-07T03:35:53;101910.66;;;0.52;100.00
8286;BME280;4181;43.416;24.598;2023-02-07T03:38:21;101930.28;;;0.62;100.00
8286;BME280;4181;43.416;24.598;2023-02-07T03:40:52;101924.78;;;0.35;100.00
8286;BME280;4181;43.416;24.598;2023-02-07T03:43:24;101925.94;;;0.52;100.00
8286;BME280;4181;43.416;24.598;2023-02-07T03:45:51;101930.41;;;0.70;100.00
8286;BME280;4181;43.416;24.598;2023-02-07T03:48:16;101909.81;;;0.52;100.00
8286;BME280;4181;43.416;24.598;2023-02-07T03:50:42;101916.84;;;0.62;100.00
8286;BME280;4181;43.416;24.598;2023-02-07T03:53:07;101922.50;;;0.59;100.00
8286;BME280;4181;43.416;24.598;2023-02-07T03:55:33;101929.97;;;0.65;100.00
8286;BME280;4181;43.416;24.598;2023-02-07T03:57:58;101938.47;;;0.80;100.00
8286;BME280;4181;43.416;24.598;2023-02-07T04:00:24;101939.03;;;0.83;100.00
8286;BME280;4181;43.416;24.598;2023-02-07T04:02:49;101939.84;;;0.93;100.00
8286;BME280;4181;43.416;24.598;2023-02-07T04:05:15;101918.81;;;0.79;100.00
8286;BME280;4181;43.416;24.598;2023-02-07T04:07:40;101946.91;;;0.94;100.00
8286;BME280;4181;43.416;24.598;2023-02-07T04:10:06;101923.03;;;0.82;100.00
8286;BME280;4181;43.416;24.598;2023-02-07T04:12:32;101924.69;;;0.92;100.00
8286;BME280;4181;43.416;24.598;2023-02-07T04:14:59;101937.44;;;1.00;100.00
8286;BME280;4181;43.416;24.598;2023-02-07T04:17:24;101937.69;;;1.06;100.00
8286;BME280;4181;43.416;24.598;2023-02-07T04:19:50;101925.81;;;0.99;100.00
8286;BME280;4181;43.416;24.598;2023-02-07T04:22:15;101919.63;;;0.89;100.00
8286;BME280;4181;43.416;24.598;2023-02-07T04:24:41;101949.00;;;1.00;100.00
8286;BME280;4181;43.416;24.598;2023-02-07T04:27:06;101939.13;;;0.91;100.00
8286;BME280;4181;43.416;24.598;2023-02-07T04:29:32;101947.91;;;0.93;100.00
8286;BME280;4181;43.416;24.598;2023-02-07T04:31:57;101954.97;;;0.94;100.00
8286;BME280;4181;43.416;24.598;2023-02-07T04:34:23;101969.25;;;0.95;100.00
8286;BME280;4181;43.416;24.598;2023-02-07T04:36:48;101962.06;;;0.86;100.00
8286;BME280;4181;43.416;24.598;2023-02-07T04:39:14;101946.38;;;0.81;100.00
8286;BME280;4181;43.416;24.598;2023-02-07T04:41:39;101974.59;;;1.04;100.00
8286;BME280;4181;43.416;24.598;2023-02-07T04:44:04;101965.75;;;0.85;100.00
8286;BME280;4181;43.416;24.598;2023-02-07T04:46:30;101970.81;;;0.88;100.00
8286;BME280;4181;43.416;24.598;2023-02-07T04:48:55;101967.56;;;0.84;100.00
8286;BME280;4181;43.416;24.598;2023-02-07T04:51:21;101972.22;;;0.92;100.00
8286;BME280;4181;43.416;24.598;2023-02-07T04:53:47;101972.53;;;0.79;100.00
8286;BME280;4181;43.416;24.598;2023-02-07T04:56:12;101972.09;;;0.93;100.00
8286;BME280;4181;43.416;24.598;2023-02-07T04:58:38;101961.75;;;0.98;100.00
8286;BME280;4181;43.416;24.598;2023-02-07T05:01:03;101981.53;;;0.97;100.00
8286;BME280;4181;43.416;24.598;2023-02-07T05:03:29;101986.50;;;0.92;100.00
8286;BME280;4181;43.416;24.598;2023-02-07T05:05:54;101966.16;;;0.80;100.00
8286;BME280;4181;43.416;24.598;2023-02-07T05:08:20;101962.63;;;0.89;100.00
8286;BME280;4181;43.416;24.598;2023-02-07T05:10:50;101969.81;;;0.89;100.00
8286;BME280;4181;43.416;24.598;2023-02-07T05:13:15;101987.22;;;0.94;100.00
8286;BME280;4181;43.416;24.598;2023-02-07T05:15:41;101976.63;;;0.83;100.00
8286;BME280;4181;43.416;24.598;2023-02-07T05:18:07;101994.28;;;0.95;100.00
8286;BME280;4181;43.416;24.598;2023-02-07T05:20:32;101995.56;;;0.91;100.00
8286;BME280;4181;43.416;24.598;2023-02-07T05:22:58;102000.25;;;0.89;100.00
8286;BME280;4181;43.416;24.598;2023-02-07T05:25:23;101971.38;;;0.82;100.00
8286;BME280;4181;43.416;24.598;2023-02-07T05:27:49;101997.97;;;0.94;100.00
8286;BME280;4181;43.416;24.598;2023-02-07T05:30:15;102001.53;;;0.76;100.00
8286;BME280;4181;43.416;24.598;2023-02-07T05:32:40;102004.03;;;0.87;100.00
8286;BME280;4181;43.416;24.598;2023-02-07T05:35:24;102003.34;;;0.94;100.00
8286;BME280;4181;43.416;24.598;2023-02-07T05:37:49;102000.38;;;0.88;100.00
8286;BME280;4181;43.416;24.598;2023-02-07T05:40:15;102007.84;;;0.94;100.00
8286;BME280;4181;43.416;24.598;2023-02-07T05:42:40;101989.09;;;0.75;100.00
8286;BME280;4181;43.416;24.598;2023-02-07T05:45:07;102002.22;;;0.87;100.00
8286;BME280;4181;43.416;24.598;2023-02-07T05:47:33;101990.91;;;0.74;100.00
8286;BME280;4181;43.416;24.598;2023-02-07T05:49:58;101993.59;;;0.74;100.00
8286;BME280;4181;43.416;24.598;2023-02-07T05:52:24;101994.59;;;0.73;100.00
8286;BME280;4181;43.416;24.598;2023-02-07T05:54:49;102011.00;;;0.70;100.00
8286;BME280;4181;43.416;24.598;2023-02-07T05:57:15;102010.72;;;0.73;100.00
8286;BME280;4181;43.416;24.598;2023-02-07T05:59:40;101987.66;;;0.71;100.00
8286;BME280;4181;43.416;24.598;2023-02-07T06:02:06;102004.59;;;0.90;100.00
8286;BME280;4181;43.416;24.598;2023-02-07T06:04:31;101992.19;;;0.80;100.00
8286;BME280;4181;43.416;24.598;2023-02-07T06:06:57;102007.28;;;1.09;100.00
8286;BME280;4181;43.416;24.598;2023-02-07T06:09:22;102000.09;;;1.37;100.00
8286;BME280;4181;43.416;24.598;2023-02-07T06:11:48;101981.38;;;1.55;100.00
8286;BME280;4181;43.416;24.598;2023-02-07T06:14:13;102000.91;;;1.57;100.00
8286;BME280;4181;43.416;24.598;2023-02-07T06:16:38;102008.81;;;1.58;100.00
8286;BME280;4181;43.416;24.598;2023-02-07T06:19:04;102002.78;;;1.47;100.00
8286;BME280;4181;43.416;24.598;2023-02-07T06:21:30;102025.13;;;1.57;100.00
8286;BME280;4181;43.416;24.598;2023-02-07T06:23:55;102034.56;;;1.70;100.00
8286;BME280;4181;43.416;24.598;2023-02-07T06:26:21;102010.34;;;1.61;100.00
8286;BME280;4181;43.416;24.598;2023-02-07T06:28:46;102025.22;;;1.65;100.00
8286;BME280;4181;43.416;24.598;2023-02-07T06:31:12;102024.81;;;1.60;100.00
8286;BME280;4181;43.416;24.598;2023-02-07T06:33:38;102022.13;;;1.60;100.00
8286;BME280;4181;43.416;24.598;2023-02-07T06:36:03;102028.56;;;1.76;100.00
8286;BME280;4181;43.416;24.598;2023-02-07T06:38:29;102025.44;;;1.81;100.00
8286;BME280;4181;43.416;24.598;2023-02-07T06:40:55;102001.41;;;1.70;100.00
8286;BME280;4181;43.416;24.598;2023-02-07T06:43:20;102022.16;;;1.87;100.00
8286;BME280;4181;43.416;24.598;2023-02-07T06:45:46;102033.94;;;1.76;100.00
8286;BME280;4181;43.416;24.598;2023-02-07T06:48:11;102026.50;;;1.61;100.00
8286;BME280;4181;43.416;24.598;2023-02-07T06:50:37;102040.97;;;1.60;100.00
8286;BME280;4181;43.416;24.598;2023-02-07T06:53:03;102046.50;;;1.49;100.00
8286;BME280;4181;43.416;24.598;2023-02-07T06:55:29;102048.22;;;1.50;100.00
8286;BME280;4181;43.416;24.598;2023-02-07T06:57:55;102025.88;;;1.40;100.00
8286;BME280;4181;43.416;24.598;2023-02-07T07:00:21;102045.38;;;1.51;100.00
8286;BME280;4181;43.416;24.598;2023-02-07T07:02:47;102053.63;;;1.30;100.00
8286;BME280;4181;43.416;24.598;2023-02-07T07:05:13;102041.88;;;1.41;100.00
8286;BME280;4181;43.416;24.598;2023-02-07T07:07:38;102030.69;;;1.36;100.00
8286;BME280;4181;43.416;24.598;2023-02-07T07:10:04;102037.16;;;1.53;100.00
8286;BME280;4181;43.416;24.598;2023-02-07T07:12:30;102017.06;;;1.47;100.00
8286;BME280;4181;43.416;24.598;2023-02-07T07:14:55;102027.56;;;1.50;100.00
8286;BME280;4181;43.416;24.598;2023-02-07T07:17:21;102016.03;;;1.58;100.00
8286;BME280;4181;43.416;24.598;2023-02-07T07:19:46;102031.34;;;1.84;100.00
8286;BME280;4181;43.416;24.598;2023-02-07T07:22:12;102013.47;;;1.93;100.00
8286;BME280;4181;43.416;24.598;2023-02-07T07:24:37;102000.94;;;2.28;100.00
8286;BME280;4181;43.416;24.598;2023-02-07T07:27:02;102004.25;;;2.57;100.00
8286;BME280;4181;43.416;24.598;2023-02-07T07:29:28;102004.41;;;2.38;100.00
8286;BME280;4181;43.416;24.598;2023-02-07T07:31:53;102001.72;;;2.74;100.00
8286;BME280;4181;43.416;24.598;2023-02-07T07:34:19;101978.72;;;2.87;100.00
8286;BME280;4181;43.416;24.598;2023-02-07T07:36:44;101988.81;;;3.28;100.00
8286;BME280;4181;43.416;24.598;2023-02-07T07:39:10;101995.78;;;3.13;100.00
8286;BME280;4181;43.416;24.598;2023-02-07T07:41:36;102002.00;;;3.39;100.00
8286;BME280;4181;43.416;24.598;2023-02-07T07:44:02;101985.63;;;3.33;100.00
8286;BME280;4181;43.416;24.598;2023-02-07T07:46:28;101986.31;;;3.68;100.00
8286;BME280;4181;43.416;24.598;2023-02-07T07:48:53;101986.28;;;3.60;100.00
8286;BME280;4181;43.416;24.598;2023-02-07T07:51:19;101981.09;;;4.17;100.00
8286;BME280;4181;43.416;24.598;2023-02-07T07:53:44;101982.00;;;4.41;100.00
8286;BME280;4181;43.416;24.598;2023-02-07T07:56:10;101969.84;;;4.93;100.00
8286;BME280;4181;43.416;24.598;2023-02-07T07:58:35;101950.66;;;5.43;100.00
8286;BME280;4181;43.416;24.598;2023-02-07T08:01:01;101938.38;;;5.63;100.00
8286;BME280;4181;43.416;24.598;2023-02-07T08:03:27;101928.69;;;5.85;100.00
8286;BME280;4181;43.416;24.598;2023-02-07T08:05:52;101946.53;;;6.32;100.00
8286;BME280;4181;43.416;24.598;2023-02-07T08:08:19;101939.66;;;6.22;100.00
8286;BME280;4181;43.416;24.598;2023-02-07T08:10:45;101952.28;;;6.29;100.00
8286;BME280;4181;43.416;24.598;2023-02-07T08:13:11;101944.44;;;6.43;100.00
8286;BME280;4181;43.416;24.598;2023-02-07T08:15:37;101941.59;;;6.59;100.00
8286;BME280;4181;43.416;24.598;2023-02-07T08:18:03;101958.06;;;6.26;100.00
8286;BME280;4181;43.416;24.598;2023-02-07T08:20:29;101950.31;;;6.69;100.00
8286;BME280;4181;43.416;24.598;2023-02-07T08:22:54;101945.00;;;6.75;100.00
8286;BME280;4181;43.416;24.598;2023-02-07T08:25:21;101935.00;;;6.30;100.00
8286;BME280;4181;43.416;24.598;2023-02-07T08:27:47;101942.97;;;6.55;100.00
8286;BME280;4181;43.416;24.598;2023-02-07T08:30:13;101947.41;;;6.70;100.00
8286;BME280;4181;43.416;24.598;2023-02-07T08:32:40;101942.19;;;6.69;100.00
8286;BME280;4181;43.416;24.598;2023-02-07T08:35:06;101946.56;;;6.92;100.00
8286;BME280;4181;43.416;24.598;2023-02-07T08:37:32;101941.59;;;6.59;100.00
8286;BME280;4181;43.416;24.598;2023-02-07T08:39:58;101954.28;;;6.58;100.00
8286;BME280;4181;43.416;24.598;2023-02-07T08:42:23;101954.78;;;6.84;100.00
8286;BME280;4181;43.416;24.598;2023-02-07T08:44:49;101951.63;;;6.73;100.00
8286;BME280;4181;43.416;24.598;2023-02-07T08:47:16;101945.50;;;6.93;100.00
8286;BME280;4181;43.416;24.598;2023-02-07T08:49:42;101947.97;;;7.03;100.00
8286;BME280;4181;43.416;24.598;2023-02-07T08:52:09;101959.84;;;7.02;100.00
8286;BME280;4181;43.416;24.598;2023-02-07T08:54:35;101959.59;;;6.74;100.00
8286;BME280;4181;43.416;24.598;2023-02-07T08:57:00;101938.63;;;7.05;100.00
8286;BME280;4181;43.416;24.598;2023-02-07T08:59:26;101937.53;;;7.43;100.00
8286;BME280;4181;43.416;24.598;2023-02-07T09:01:51;101955.88;;;7.27;100.00
8286;BME280;4181;43.416;24.598;2023-02-07T09:04:17;101944.25;;;7.33;100.00
8286;BME280;4181;43.416;24.598;2023-02-07T09:06:42;101949.91;;;7.46;100.00
8286;BME280;4181;43.416;24.598;2023-02-07T09:09:08;101954.00;;;7.27;100.00
8286;BME280;4181;43.416;24.598;2023-02-07T09:11:35;101951.97;;;6.92;100.00
8286;BME280;4181;43.416;24.598;2023-02-07T09:14:00;101954.03;;;6.90;100.00
8286;BME280;4181;43.416;24.598;2023-02-07T09:16:25;101934.19;;;6.90;100.00
8286;BME280;4181;43.416;24.598;2023-02-07T09:18:51;101940.09;;;7.08;100.00
8286;BME280;4181;43.416;24.598;2023-02-07T09:21:17;101946.44;;;7.37;100.00
8286;BME280;4181;43.416;24.598;2023-02-07T09:23:43;101960.06;;;7.15;100.00
8286;BME280;4181;43.416;24.598;2023-02-07T09:26:15;101944.91;;;7.35;100.00
8286;BME280;4181;43.416;24.598;2023-02-07T09:28:41;101940.69;;;7.18;100.00
8286;BME280;4181;43.416;24.598;2023-02-07T09:31:08;101957.63;;;6.83;100.00
8286;BME280;4181;43.416;24.598;2023-02-07T09:33:34;101926.00;;;7.27;100.00
8286;BME280;4181;43.416;24.598;2023-02-07T09:35:59;101939.41;;;7.57;100.00
8286;BME280;4181;43.416;24.598;2023-02-07T09:38:25;101946.06;;;7.40;100.00
8286;BME280;4181;43.416;24.598;2023-02-07T09:40:51;101935.75;;;7.36;100.00
8286;BME280;4181;43.416;24.598;2023-02-07T09:46:02;101928.34;;;7.44;100.00
8286;BME280;4181;43.416;24.598;2023-02-07T09:48:35;101920.44;;;7.93;100.00
8286;BME280;4181;43.416;24.598;2023-02-07T09:51:04;101907.34;;;7.82;100.00
8286;BME280;4181;43.416;24.598;2023-02-07T09:53:39;101913.97;;;7.80;100.00
8286;BME280;4181;43.416;24.598;2023-02-07T09:56:08;101918.44;;;7.66;100.00
8286;BME280;4181;43.416;24.598;2023-02-07T10:01:23;101900.00;;;7.97;100.00
8286;BME280;4181;43.416;24.598;2023-02-07T10:04:05;101910.25;;;7.81;100.00
8286;BME280;4181;43.416;24.598;2023-02-07T10:06:34;101905.63;;;7.81;100.00
8286;BME280;4181;43.416;24.598;2023-02-07T10:09:00;101910.91;;;7.68;100.00
8286;BME280;4181;43.416;24.598;2023-02-07T10:22:39;101858.75;;;8.50;100.00
8286;BME280;4181;43.416;24.598;2023-02-07T10:25:37;101882.88;;;7.82;100.00
8286;BME280;4181;43.416;24.598;2023-02-07T10:30:47;101869.53;;;7.66;100.00
8286;BME280;4181;43.416;24.598;2023-02-07T10:33:17;101881.56;;;7.78;100.00
8286;BME280;4181;43.416;24.598;2023-02-07T10:35:43;101879.97;;;8.19;100.00
8286;BME280;4181;43.416;24.598;2023-02-07T10:38:32;101878.84;;;7.78;100.00
8286;BME280;4181;43.416;24.598;2023-02-07T10:41:03;101878.78;;;8.07;100.00
8286;BME280;4181;43.416;24.598;2023-02-07T10:43:32;101884.91;;;7.95;100.00
8286;BME280;4181;43.416;24.598;2023-02-07T10:46:04;101873.03;;;8.38;100.00
8286;BME280;4181;43.416;24.598;2023-02-07T10:48:31;101877.00;;;8.35;100.00
8286;BME280;4181;43.416;24.598;2023-02-07T10:50:59;101851.50;;;8.36;100.00
8286;BME280;4181;43.416;24.598;2023-02-07T10:54:13;101878.69;;;8.36;100.00
8286;BME280;4181;43.416;24.598;2023-02-07T10:59:42;101871.19;;;8.38;100.00
8286;BME280;4181;43.416;24.598;2023-02-07T11:04:59;101885.22;;;7.85;100.00
8286;BME280;4181;43.416;24.598;2023-02-07T11:07:26;101879.63;;;7.72;100.00
8286;BME280;4181;43.416;24.598;2023-02-07T11:12:47;101885.19;;;7.20;100.00
8286;BME280;4181;43.416;24.598;2023-02-07T11:15:18;101893.16;;;6.70;100.00
8286;BME280;4181;43.416;24.598;2023-02-07T11:17:52;101878.16;;;6.60;100.00
8286;BME280;4181;43.416;24.598;2023-02-07T11:20:26;101868.66;;;6.64;100.00
8286;BME280;4181;43.416;24.598;2023-02-07T11:22:53;101873.66;;;6.89;100.00
8286;BME280;4181;43.416;24.598;2023-02-07T11:25:33;101878.34;;;7.10;100.00
8286;BME280;4181;43.416;24.598;2023-02-07T11:28:00;101855.22;;;7.28;100.00
8286;BME280;4181;43.416;24.598;2023-02-07T11:30:33;101861.00;;;7.54;100.00
8286;BME280;4181;43.416;24.598;2023-02-07T11:33:04;101856.84;;;7.73;100.00
8286;BME280;4181;43.416;24.598;2023-02-07T11:35:37;101863.38;;;7.14;100.00
8286;BME280;4181;43.416;24.598;2023-02-07T11:38:12;101866.53;;;6.88;100.00
8286;BME280;4181;43.416;24.598;2023-02-07T11:45:41;101867.66;;;6.79;100.00
8286;BME280;4181;43.416;24.598;2023-02-07T11:48:16;101863.91;;;6.80;100.00
8286;BME280;4181;43.416;24.598;2023-02-07T11:50:46;101862.41;;;6.78;100.00
8286;BME280;4181;43.416;24.598;2023-02-07T11:53:33;101878.25;;;6.52;100.00
8286;BME280;4181;43.416;24.598;2023-02-07T11:56:00;101861.97;;;6.52;100.00
8286;BME280;4181;43.416;24.598;2023-02-07T11:58:33;101857.47;;;6.96;100.00
8286;BME280;4181;43.416;24.598;2023-02-07T12:01:01;101854.00;;;7.02;100.00
8286;BME280;4181;43.416;24.598;2023-02-07T12:03:45;101862.88;;;6.81;100.00
8286;BME280;4181;43.416;24.598;2023-02-07T12:06:16;101872.66;;;6.30;100.00
8286;BME280;4181;43.416;24.598;2023-02-07T12:08:43;101875.13;;;5.95;100.00
8286;BME280;4181;43.416;24.598;2023-02-07T12:11:17;101862.72;;;6.23;100.00
8286;BME280;4181;43.416;24.598;2023-02-07T12:13:48;101863.78;;;5.91;100.00
8286;BME280;4181;43.416;24.598;2023-02-07T12:16:25;101852.47;;;6.33;100.00
8286;BME280;4181;43.416;24.598;2023-02-07T12:19:03;101863.91;;;6.43;100.00
8286;BME280;4181;43.416;24.598;2023-02-07T12:21:51;101862.38;;;6.03;100.00
8286;BME280;4181;43.416;24.598;2023-02-07T12:24:30;101866.81;;;6.41;100.00
8286;BME280;4181;43.416;24.598;2023-02-07T12:27:17;101873.56;;;6.23;100.00
8286;BME280;4181;43.416;24.598;2023-02-07T12:30:40;101862.84;;;6.52;100.00
8286;BME280;4181;43.416;24.598;2023-02-07T12:35:56;101864.91;;;6.27;100.00
8286;BME280;4181;43.416;24.598;2023-02-07T12:38:29;101875.78;;;5.97;100.00
8286;BME280;4181;43.416;24.598;2023-02-07T12:41:04;101884.41;;;6.00;100.00
8286;BME280;4181;43.416;24.598;2023-02-07T12:57:32;101900.09;;;5.28;100.00
8286;BME280;4181;43.416;24.598;2023-02-07T13:00:11;101902.00;;;5.27;100.00
8286;BME280;4181;43.416;24.598;2023-02-07T13:05:48;101885.38;;;5.38;100.00
8286;BME280;4181;43.416;24.598;2023-02-07T13:08:36;101877.63;;;5.66;100.00
8286;BME280;4181;43.416;24.598;2023-02-07T13:19:24;101873.06;;;5.97;100.00
8286;BME280;4181;43.416;24.598;2023-02-07T13:21:59;101885.28;;;5.62;100.00
8286;BME280;4181;43.416;24.598;2023-02-07T13:24:28;101874.91;;;5.35;100.00
8286;BME280;4181;43.416;24.598;2023-02-07T13:26:59;101891.06;;;5.51;100.00
8286;BME280;4181;43.416;24.598;2023-02-07T13:29:30;101891.84;;;5.21;100.00
8286;BME280;4181;43.416;24.598;2023-02-07T13:32:01;101894.53;;;5.21;100.00
8286;BME280;4181;43.416;24.598;2023-02-07T13:34:41;101900.00;;;5.13;100.00
8286;BME280;4181;43.416;24.598;2023-02-07T13:37:10;101899.53;;;4.77;100.00
8286;BME280;4181;43.416;24.598;2023-02-07T13:40:02;101909.66;;;4.91;100.00
8286;BME280;4181;43.416;24.598;2023-02-07T13:42:48;101918.81;;;4.90;100.00
8286;BME280;4181;43.416;24.598;2023-02-07T13:45:25;101890.44;;;4.62;100.00
8286;BME280;4181;43.416;24.598;2023-02-07T13:50:49;101908.31;;;4.79;100.00
8286;BME280;4181;43.416;24.598;2023-02-07T13:56:08;101915.28;;;4.58;100.00
8286;BME280;4181;43.416;24.598;2023-02-07T13:58:53;101898.88;;;4.51;100.00
8286;BME280;4181;43.416;24.598;2023-02-07T14:01:46;101906.00;;;4.68;100.00
8286;BME280;4181;43.416;24.598;2023-02-07T14:04:15;101909.84;;;4.90;100.00
8286;BME280;4181;43.416;24.598;2023-02-07T14:09:32;101902.06;;;4.95;100.00
8286;BME280;4181;43.416;24.598;2023-02-07T14:14:33;101892.91;;;5.12;100.00
8286;BME280;4181;43.416;24.598;2023-02-07T14:19:58;101902.09;;;4.63;100.00
8286;BME280;4181;43.416;24.598;2023-02-07T14:22:27;101901.75;;;4.50;100.00
8286;BME280;4181;43.416;24.598;2023-02-07T14:27:34;101905.16;;;4.52;100.00
8286;BME280;4181;43.416;24.598;2023-02-07T14:33:16;101902.44;;;4.60;100.00
8286;BME280;4181;43.416;24.598;2023-02-07T14:38:09;101910.19;;;4.71;100.00
8286;BME280;4181;43.416;24.598;2023-02-07T14:45:58;101897.38;;;4.49;100.00
8286;BME280;4181;43.416;24.598;2023-02-07T14:48:56;101904.81;;;4.39;100.00
8286;BME280;4181;43.416;24.598;2023-02-07T14:54:13;101906.84;;;4.37;100.00
8286;BME280;4181;43.416;24.598;2023-02-07T14:57:34;101902.25;;;4.13;100.00
8286;BME280;4181;43.416;24.598;2023-02-07T14:59:41;101917.69;;;3.79;100.00
8286;BME280;4181;43.416;24.598;2023-02-07T15:02:27;101923.69;;;3.57;100.00
8286;BME280;4181;43.416;24.598;2023-02-07T15:04:53;101927.72;;;3.53;100.00
8286;BME280;4181;43.416;24.598;2023-02-07T15:07:18;101892.28;;;3.48;100.00
8286;BME280;4181;43.416;24.598;2023-02-07T15:09:44;101930.28;;;3.29;100.00
8286;BME280;4181;43.416;24.598;2023-02-07T15:12:20;101925.00;;;3.45;100.00
8286;BME280;4181;43.416;24.598;2023-02-07T15:14:47;101933.09;;;3.19;100.00
8286;BME280;4181;43.416;24.598;2023-02-07T15:17:12;101900.88;;;3.10;100.00
8286;BME280;4181;43.416;24.598;2023-02-07T15:19:45;101927.09;;;3.00;100.00
8286;BME280;4181;43.416;24.598;2023-02-07T15:22:23;101921.94;;;3.14;100.00
8286;BME280;4181;43.416;24.598;2023-02-07T15:24:49;101926.59;;;3.04;100.00
8286;BME280;4181;43.416;24.598;2023-02-07T15:27:23;101913.66;;;2.82;100.00